Terminal Aerodrome Forecast
Issued by NWS

Home | Current Version | Previous Version | Text Only | Print | Product List | Glossary Off
Versions: 1 2 3 4 5 6 7 8 9 10 11 12 13 14 15 16 17 18
000 FTUS41 KBOX 111505 AAA TAFBED TAF AMD KBED 111505Z 1115/1212 25006KT P6SM SCT090 FM111600 26009KT P6SM FEW045 FM111900 27007KT P6SM SCT045 FM112300 00000KT P6SM SCT150 FM121000 VRB03KT P6SM VCSH OVC030=

USA.gov is the U.S. government's official web portal to all federal, state and local government web resources and services.